Time;durP1;ratioP1;P1;durP2;ratioP2;P2;SDS_P1;SDS_P2;PMS_P1;PMS_P2;Temp;Humidity;BMP_temperature;BMP_pressure;BME280_temperature;BME280_humidity;BME280_pressure;Samples;Min_cycle;Max_cycle;Signal;HPM_P1;HPM_P2
2021/03/17 00:00:45;;;;;;;1.37;1.10;;;5.10;98.00;;;;;;5072129;28;20479;-73
2021/03/17 00:03:12;;;;;;;1.50;1.47;;;5.10;98.00;;;;;;5069887;28;20451;-73
2021/03/17 00:05:41;;;;;;;1.30;1.10;;;5.10;98.00;;;;;;5072027;28;20507;-72
2021/03/17 00:08:08;;;;;;;1.20;1.00;;;5.10;98.00;;;;;;5069847;28;21037;-72
2021/03/17 00:10:37;;;;;;;1.20;1.10;;;5.20;98.00;;;;;;5070732;28;20507;-72
2021/03/17 00:13:05;;;;;;;1.20;1.10;;;4.90;98.00;;;;;;5069651;28;20490;-73
2021/03/17 00:15:33;;;;;;;1.20;0.90;;;4.70;98.00;;;;;;5072080;28;20486;-72
2021/03/17 00:18:00;;;;;;;1.30;1.10;;;4.70;98.00;;;;;;5069877;28;20454;-73
2021/03/17 00:20:28;;;;;;;2.83;2.03;;;4.70;98.00;;;;;;5071859;28;20455;-73
2021/03/17 00:22:56;;;;;;;1.40;1.13;;;4.80;98.00;;;;;;5068393;28;20488;-72
2021/03/17 00:25:24;;;;;;;1.20;0.93;;;4.70;98.00;;;;;;5071895;28;20485;-73
2021/03/17 00:27:51;;;;;;;1.20;1.10;;;4.60;98.00;;;;;;5069389;28;20529;-72
2021/03/17 00:30:19;;;;;;;1.20;0.90;;;4.70;98.00;;;;;;5070006;28;20552;-72
2021/03/17 00:32:46;;;;;;;1.43;1.20;;;4.70;98.00;;;;;;5069656;28;20454;-72
2021/03/17 00:35:12;;;;;;;1.10;1.00;;;4.80;98.00;;;;;;5071290;28;20451;-72
2021/03/17 00:37:40;;;;;;;1.27;1.00;;;4.80;98.00;;;;;;5068960;28;20488;-72
2021/03/17 00:40:08;;;;;;;1.47;1.47;;;4.70;98.00;;;;;;5071615;28;20459;-72
2021/03/17 00:42:35;;;;;;;1.20;1.00;;;4.60;98.00;;;;;;5069419;28;20481;-72
2021/03/17 00:45:01;;;;;;;1.20;1.00;;;4.60;98.00;;;;;;5071864;28;20999;-72
2021/03/17 00:47:28;;;;;;;1.20;1.00;;;4.70;98.00;;;;;;5069553;28;20480;-72
2021/03/17 00:49:55;;;;;;;1.97;1.83;;;4.60;98.00;;;;;;5071726;28;20513;-72
2021/03/17 00:52:21;;;;;;;4.70;1.20;;;4.60;98.00;;;;;;5068527;28;20519;-72
2021/03/17 00:54:48;;;;;;;1.20;0.90;;;4.50;98.00;;;;;;5071648;28;20465;-72
2021/03/17 00:57:15;;;;;;;2.57;1.93;;;4.30;98.00;;;;;;5069259;28;20479;-72
2021/03/17 00:59:42;;;;;;;1.10;0.90;;;4.30;98.00;;;;;;5071582;28;21082;-72
2021/03/17 01:02:09;;;;;;;2.33;1.53;;;4.20;98.00;;;;;;5071152;28;20467;-72
2021/03/17 01:04:35;;;;;;;1.30;1.30;;;4.10;98.00;;;;;;5069364;28;21021;-72
2021/03/17 01:07:08;;;;;;;1.20;0.90;;;4.10;98.00;;;;;;5071388;28;20493;-72
2021/03/17 01:09:35;;;;;;;1.20;1.03;;;4.30;98.00;;;;;;5069839;28;20465;-72
2021/03/17 01:12:02;;;;;;;1.17;0.90;;;4.60;98.00;;;;;;5071796;28;20515;-72
2021/03/17 01:14:30;;;;;;;1.63;1.20;;;4.60;98.00;;;;;;5051196;28;20460;-72
2021/03/17 01:16:56;;;;;;;1.20;1.00;;;4.70;98.00;;;;;;5071320;28;20513;-72
2021/03/17 01:19:23;;;;;;;1.57;1.10;;;4.70;98.00;;;;;;5068985;28;20854;-72
2021/03/17 01:21:50;;;;;;;1.30;1.10;;;4.40;98.00;;;;;;5071138;28;20549;-72
2021/03/17 01:24:16;;;;;;;1.10;0.90;;;4.20;98.00;;;;;;5068696;28;20457;-72
2021/03/17 01:26:43;;;;;;;1.20;1.10;;;4.00;98.00;;;;;;5071075;28;20538;-72
2021/03/17 01:29:10;;;;;;;1.10;1.00;;;3.90;98.00;;;;;;5068772;28;20495;-71
2021/03/17 01:31:37;;;;;;;2.23;1.40;;;3.90;98.00;;;;;;5071043;28;20504;-72
2021/03/17 01:34:04;;;;;;;1.20;1.20;;;3.90;98.00;;;;;;5068674;28;20484;-72
2021/03/17 01:36:30;;;;;;;1.93;1.20;;;4.00;98.00;;;;;;5070832;28;20482;-72
2021/03/17 01:38:58;;;;;;;1.67;1.07;;;4.20;98.00;;;;;;5068188;28;20462;-72
2021/03/17 01:41:25;;;;;;;1.40;1.17;;;4.20;98.00;;;;;;5069128;28;20970;-72
2021/03/17 01:43:51;;;;;;;1.20;1.00;;;4.20;98.00;;;;;;5072153;28;20515;-72
2021/03/17 01:46:20;;;;;;;1.20;1.10;;;4.20;98.00;;;;;;5074507;28;20478;-72
2021/03/17 01:48:47;;;;;;;2.50;1.20;;;4.20;98.00;;;;;;5055132;28;20510;-72
2021/03/17 01:51:14;;;;;;;1.87;1.57;;;4.30;98.00;;;;;;5073655;28;20449;-72
2021/03/17 01:53:41;;;;;;;1.50;1.40;;;4.30;98.00;;;;;;5072489;28;20810;-72
2021/03/17 01:56:08;;;;;;;1.30;1.20;;;4.30;98.00;;;;;;5074915;28;20501;-72
2021/03/17 01:58:36;;;;;;;1.30;1.10;;;4.30;98.00;;;;;;5072169;28;20451;-72
2021/03/17 02:01:04;;;;;;;1.53;1.20;;;4.40;98.00;;;;;;5074846;28;20547;-72
2021/03/17 02:03:32;;;;;;;1.20;1.00;;;4.40;98.00;;;;;;5071852;28;20467;-72
2021/03/17 02:06:00;;;;;;;1.70;1.40;;;4.50;98.00;;;;;;5074353;28;20494;-71
2021/03/17 02:08:30;;;;;;;1.30;1.03;;;4.60;98.00;;;;;;5071664;28;20521;-71
2021/03/17 02:10:58;;;;;;;1.50;1.17;;;4.60;98.00;;;;;;5074639;28;20461;-71
2021/03/17 02:13:45;;;;;;;1.20;0.90;;;4.80;98.00;;;;;;5071632;28;20461;-72
2021/03/17 02:16:17;;;;;;;3.57;2.27;;;4.90;98.00;;;;;;5074400;28;20958;-72
2021/03/17 02:18:55;;;;;;;1.10;0.90;;;4.70;98.00;;;;;;5071787;28;20454;-72
2021/03/17 02:22:04;;;;;;;1.20;0.90;;;4.40;98.00;;;;;;5073799;28;20544;-72
2021/03/17 02:24:38;;;;;;;1.30;1.20;;;4.30;98.00;;;;;;5060684;28;20523;-72
2021/03/17 02:27:23;;;;;;;1.37;1.37;;;4.30;98.00;;;;;;5074020;28;20483;-72
2021/03/17 02:30:40;;;;;;;1.10;0.90;;;4.40;98.00;;;;;;5074015;28;20488;-72
2021/03/17 02:33:35;;;;;;;1.53;1.30;;;4.50;98.00;;;;;;5071081;28;20494;-72
2021/03/17 02:36:06;;;;;;;1.20;1.00;;;4.80;98.00;;;;;;5073578;28;20465;-72
2021/03/17 02:38:37;;;;;;;1.20;1.00;;;4.70;98.00;;;;;;5070882;28;20481;-72
2021/03/17 02:41:04;;;;;;;1.30;1.30;;;4.70;98.00;;;;;;5073557;28;20548;-72
2021/03/17 02:43:33;;;;;;;1.17;0.90;;;4.80;98.00;;;;;;5071637;28;20819;-72
2021/03/17 02:46:02;;;;;;;2.07;1.30;;;4.70;98.00;;;;;;5074083;28;20465;-72
2021/03/17 02:48:32;;;;;;;1.40;1.30;;;4.70;98.00;;;;;;5071241;28;20496;-72
2021/03/17 02:51:02;;;;;;;3.30;1.87;;;4.70;98.00;;;;;;5073848;28;20448;-72
2021/03/17 02:53:30;;;;;;;1.30;1.20;;;4.70;98.00;;;;;;5070943;28;20476;-72
2021/03/17 02:56:00;;;;;;;1.13;1.00;;;4.60;98.00;;;;;;5073694;28;20497;-72
2021/03/17 02:58:29;;;;;;;1.30;1.10;;;4.60;98.00;;;;;;5071130;28;20457;-72
2021/03/17 03:00:57;;;;;;;2.17;1.20;;;4.60;98.00;;;;;;5073378;28;20481;-72
2021/03/17 03:03:26;;;;;;;3.73;1.83;;;4.70;98.00;;;;;;5069612;28;20853;-72
2021/03/17 03:05:56;;;;;;;1.10;1.00;;;4.70;98.00;;;;;;5073283;28;20465;-72
2021/03/17 03:08:24;;;;;;;1.60;1.27;;;4.70;98.00;;;;;;5071009;28;20523;-72
2021/03/17 03:10:52;;;;;;;1.20;1.20;;;4.70;98.00;;;;;;5072248;28;20887;-72
2021/03/17 03:13:20;;;;;;;1.30;1.10;;;4.50;98.00;;;;;;5070637;28;20461;-72
2021/03/17 03:15:48;;;;;;;1.77;1.27;;;4.30;98.00;;;;;;5073217;28;20530;-72
2021/03/17 03:18:14;;;;;;;1.30;1.10;;;4.30;98.00;;;;;;5070546;28;20458;-72
2021/03/17 03:20:42;;;;;;;3.00;1.63;;;4.30;98.00;;;;;;5073068;28;20871;-72
2021/03/17 03:23:10;;;;;;;1.50;1.20;;;4.20;98.00;;;;;;5069346;28;20460;-72
2021/03/17 03:25:37;;;;;;;4.30;2.07;;;4.30;98.00;;;;;;5072862;28;20517;-72
2021/03/17 03:28:12;;;;;;;1.40;1.13;;;4.40;98.00;;;;;;5069136;28;20984;-72
2021/03/17 03:30:42;;;;;;;1.20;1.00;;;4.40;98.00;;;;;;5072798;28;20459;-71
2021/03/17 03:33:09;;;;;;;1.30;1.10;;;4.40;98.00;;;;;;5070213;28;20445;-72
2021/03/17 03:35:36;;;;;;;1.77;1.00;;;4.40;98.00;;;;;;5071418;28;20552;-72
2021/03/17 03:38:05;;;;;;;1.20;1.10;;;4.50;98.00;;;;;;5070023;28;20491;-72
2021/03/17 03:40:32;;;;;;;1.30;1.10;;;4.60;98.00;;;;;;5072412;28;20489;-72
2021/03/17 03:42:59;;;;;;;1.40;1.30;;;4.70;98.00;;;;;;5070294;28;20518;-72
2021/03/17 03:45:26;;;;;;;1.20;1.00;;;4.70;98.00;;;;;;5072748;28;21077;-72
2021/03/17 03:47:53;;;;;;;1.30;1.10;;;4.70;98.00;;;;;;5069790;28;20598;-72
2021/03/17 03:50:22;;;;;;;1.50;1.50;;;4.80;98.00;;;;;;5072285;28;20489;-72
2021/03/17 03:53:02;;;;;;;1.83;1.40;;;4.70;98.00;;;;;;5069882;28;20468;-72
2021/03/17 03:55:37;;;;;;;2.50;1.97;;;4.70;98.00;;;;;;5072320;28;20479;-72
2021/03/17 03:58:05;;;;;;;1.77;1.60;;;4.60;98.00;;;;;;5069793;28;20489;-72
2021/03/17 04:00:36;;;;;;;2.30;1.80;;;4.60;98.00;;;;;;5072407;28;20470;-72
2021/03/17 04:03:06;;;;;;;1.20;1.00;;;4.70;98.00;;;;;;5069663;28;20474;-72
2021/03/17 04:05:36;;;;;;;1.30;1.10;;;4.80;98.00;;;;;;5071409;28;20458;-72
2021/03/17 04:08:08;;;;;;;1.13;1.00;;;4.80;98.00;;;;;;5069749;28;20518;-72
2021/03/17 04:10:38;;;;;;;1.30;1.10;;;4.70;98.00;;;;;;5072052;28;20534;-72
2021/03/17 04:13:06;;;;;;;1.10;0.90;;;4.70;98.00;;;;;;5069876;28;20481;-72
2021/03/17 04:15:36;;;;;;;1.40;1.40;;;4.70;98.00;;;;;;5072248;28;20462;-72
2021/03/17 04:18:10;;;;;;;2.40;1.50;;;4.70;98.00;;;;;;5070066;28;20453;-72
2021/03/17 04:20:41;;;;;;;2.50;1.63;;;4.70;98.00;;;;;;5071924;28;20480;-71
2021/03/17 04:23:14;;;;;;;1.63;1.17;;;4.60;98.00;;;;;;5069753;28;20461;-72
2021/03/17 04:25:44;;;;;;;1.63;1.40;;;4.60;98.00;;;;;;5071525;28;20465;-71
2021/03/17 04:28:14;;;;;;;2.10;1.53;;;4.60;98.00;;;;;;5069448;28;21030;-71
2021/03/17 04:30:42;;;;;;;1.40;1.40;;;4.60;98.00;;;;;;5071705;28;20977;-71
2021/03/17 04:33:13;;;;;;;1.63;1.33;;;4.60;98.00;;;;;;5069354;28;20546;-71
2021/03/17 04:35:41;;;;;;;1.80;1.63;;;4.70;98.00;;;;;;5071465;28;20527;-72
2021/03/17 04:38:09;;;;;;;1.20;1.03;;;4.70;98.00;;;;;;5069364;28;21007;-71
2021/03/17 04:40:37;;;;;;;1.20;1.00;;;4.80;98.00;;;;;;5054022;28;20557;-71
2021/03/17 04:43:05;;;;;;;2.03;1.50;;;4.90;98.00;;;;;;5069269;28;20466;-72
2021/03/17 04:45:32;;;;;;;1.47;1.43;;;4.90;98.00;;;;;;5070051;28;20489;-71
2021/03/17 04:48:00;;;;;;;1.27;1.20;;;5.00;98.00;;;;;;5067606;28;20485;-71
2021/03/17 04:50:28;;;;;;;1.30;1.10;;;5.00;98.00;;;;;;5071343;28;20447;-71
2021/03/17 04:52:55;;;;;;;1.73;1.63;;;5.00;98.00;;;;;;5068879;28;20468;-71
2021/03/17 04:55:22;;;;;;;1.20;1.07;;;5.10;98.00;;;;;;5071287;28;20465;-71
2021/03/17 04:57:51;;;;;;;1.20;1.00;;;5.10;98.00;;;;;;5068972;28;20454;-71
2021/03/17 05:00:23;;;;;;;1.67;1.57;;;5.10;98.00;;;;;;5070239;28;20520;-71
2021/03/17 05:02:53;;;;;;;1.60;1.40;;;5.00;98.00;;;;;;5069025;28;20501;-72
2021/03/17 05:05:21;;;;;;;2.17;1.27;;;5.00;98.00;;;;;;5071431;28;20461;-72
2021/03/17 05:07:49;;;;;;;1.40;1.20;;;4.90;98.00;;;;;;5068970;28;20476;-71
2021/03/17 05:10:17;;;;;;;1.20;1.00;;;5.00;98.00;;;;;;5070167;28;20827;-71
2021/03/17 05:12:56;;;;;;;1.83;1.30;;;4.90;98.00;;;;;;5068939;28;20449;-72
2021/03/17 05:15:24;;;;;;;1.20;1.10;;;4.90;98.00;;;;;;5071337;28;20510;-71
2021/03/17 05:17:57;;;;;;;1.50;1.50;;;4.90;98.00;;;;;;5073216;28;20853;-71
2021/03/17 05:20:25;;;;;;;1.17;0.90;;;4.90;98.00;;;;;;5075592;28;20462;-71
2021/03/17 05:22:53;;;;;;;3.60;1.93;;;4.70;98.00;;;;;;5072107;28;20885;-72
2021/03/17 05:25:21;;;;;;;1.20;1.00;;;4.50;98.00;;;;;;5075035;28;20460;-71
2021/03/17 05:27:52;;;;;;;1.20;1.10;;;4.40;98.00;;;;;;5073113;28;20978;-71
2021/03/17 05:30:20;;;;;;;2.07;1.77;;;4.30;98.00;;;;;;5074956;28;20480;-71
2021/03/17 05:32:49;;;;;;;5.03;1.30;;;4.40;98.00;;;;;;5072853;28;20461;-71
2021/03/17 05:35:16;;;;;;;1.20;1.20;;;4.40;98.00;;;;;;5075008;28;20463;-71
2021/03/17 05:37:45;;;;;;;1.30;1.10;;;4.50;98.00;;;;;;5072635;28;20506;-72
2021/03/17 05:40:14;;;;;;;1.77;1.67;;;4.50;98.00;;;;;;5073697;28;20468;-71
2021/03/17 05:42:41;;;;;;;1.40;1.10;;;4.40;98.00;;;;;;5072670;28;20460;-72
2021/03/17 05:45:11;;;;;;;3.10;1.30;;;4.40;98.00;;;;;;5074873;28;20452;-71
2021/03/17 05:47:39;;;;;;;1.87;1.73;;;4.50;98.00;;;;;;5073092;28;20559;-71
2021/03/17 05:50:09;;;;;;;1.57;1.53;;;4.50;98.00;;;;;;5073341;28;20972;-71
2021/03/17 05:52:36;;;;;;;2.67;1.37;;;4.60;98.00;;;;;;5073267;28;20554;-71
2021/03/17 05:55:04;;;;;;;1.20;0.90;;;4.70;98.00;;;;;;5073556;28;20449;-71
2021/03/17 05:57:32;;;;;;;1.60;1.40;;;4.80;98.00;;;;;;5074626;28;20814;-71
2021/03/17 05:59:58;;;;;;;2.20;2.00;;;5.00;98.00;;;;;;5071317;28;20484;-71
2021/03/17 06:02:32;;;;;;;1.20;1.00;;;5.00;98.00;;;;;;5074539;28;20467;-71
2021/03/17 06:05:01;;;;;;;2.30;1.43;;;4.90;98.00;;;;;;5071385;28;20987;-71
2021/03/17 06:07:47;;;;;;;1.20;1.00;;;5.00;98.00;;;;;;5074234;28;20485;-71
2021/03/17 06:10:14;;;;;;;2.33;1.47;;;4.80;98.00;;;;;;5073247;28;20492;-71
2021/03/17 06:12:45;;;;;;;1.30;1.10;;;4.70;98.00;;;;;;5072742;28;20448;-71
2021/03/17 06:15:16;;;;;;;1.30;1.13;;;4.70;98.00;;;;;;5074242;28;20499;-71
2021/03/17 06:17:45;;;;;;;1.40;1.10;;;4.40;98.00;;;;;;5070558;28;20483;-71
2021/03/17 06:20:12;;;;;;;1.20;1.00;;;4.20;98.00;;;;;;5074037;28;20880;-71
2021/03/17 06:22:41;;;;;;;1.37;1.20;;;4.00;98.00;;;;;;5073961;28;20460;-71
2021/03/17 06:25:09;;;;;;;1.20;0.90;;;3.90;98.00;;;;;;5073642;28;20456;-71
2021/03/17 06:27:37;;;;;;;1.20;1.00;;;3.80;98.00;;;;;;5072946;28;20473;-71
2021/03/17 06:30:05;;;;;;;1.20;1.00;;;3.70;98.00;;;;;;5071611;28;20540;-71
2021/03/17 06:32:32;;;;;;;2.13;1.30;;;3.70;98.00;;;;;;5072634;28;20457;-71
2021/03/17 06:34:59;;;;;;;1.10;0.90;;;3.70;98.00;;;;;;5070544;28;20469;-71
2021/03/17 06:37:36;;;;;;;1.47;1.40;;;3.90;98.00;;;;;;5073936;28;20487;-72
2021/03/17 06:40:18;;;;;;;1.70;1.57;;;4.00;98.00;;;;;;5071810;28;20464;-72
2021/03/17 06:42:45;;;;;;;1.20;1.07;;;4.00;98.00;;;;;;5071378;28;20488;-71
2021/03/17 06:45:13;;;;;;;1.20;1.10;;;3.90;98.00;;;;;;5073956;28;20801;-71
2021/03/17 06:47:40;;;;;;;1.70;1.17;;;3.80;98.00;;;;;;5072619;28;20484;-71
2021/03/17 06:50:12;;;;;;;3.63;1.67;;;3.80;98.00;;;;;;5071077;28;20529;-71
2021/03/17 06:52:43;;;;;;;1.63;1.50;;;3.90;98.00;;;;;;5072858;28;20449;-72
2021/03/17 06:55:13;;;;;;;1.60;1.30;;;4.00;98.00;;;;;;5055244;28;20771;-71
2021/03/17 06:57:41;;;;;;;1.10;1.00;;;4.00;98.00;;;;;;5072456;28;20453;-71
2021/03/17 07:00:30;;;;;;;1.30;1.20;;;4.20;98.00;;;;;;5069884;28;20969;-71
2021/03/17 07:02:59;;;;;;;2.13;1.20;;;4.40;98.00;;;;;;5071251;28;20454;-71
2021/03/17 07:05:38;;;;;;;1.40;1.20;;;4.60;98.00;;;;;;5073152;28;20455;-71
2021/03/17 07:08:06;;;;;;;1.20;1.00;;;4.60;98.00;;;;;;5070377;28;20900;-71
2021/03/17 07:10:37;;;;;;;1.20;1.00;;;4.40;98.00;;;;;;5072735;28;20458;-71
2021/03/17 07:13:06;;;;;;;1.20;1.10;;;4.40;98.00;;;;;;5070163;28;21280;-71
2021/03/17 07:15:33;;;;;;;4.73;1.70;;;4.60;98.00;;;;;;5073018;28;20460;-72
2021/03/17 07:18:18;;;;;;;2.27;1.57;;;4.90;98.00;;;;;;5070692;28;20477;-71
2021/03/17 07:20:47;;;;;;;2.57;2.23;;;4.90;98.00;;;;;;5073006;28;20452;-71
2021/03/17 07:23:33;;;;;;;1.30;1.17;;;4.90;98.00;;;;;;5070576;28;20483;-71
2021/03/17 07:26:12;;;;;;;1.10;1.00;;;5.00;98.00;;;;;;5073473;28;20661;-71
2021/03/17 07:29:02;;;;;;;1.27;1.27;;;5.00;98.00;;;;;;5071491;28;20492;-71
2021/03/17 07:31:34;;;;;;;1.63;1.53;;;5.00;98.00;;;;;;5072649;28;20496;-70
2021/03/17 07:34:13;;;;;;;1.30;1.20;;;5.00;98.00;;;;;;5070251;28;20458;-70
2021/03/17 07:36:45;;;;;;;1.20;1.00;;;5.10;98.00;;;;;;5072515;28;20457;-70
2021/03/17 07:39:15;;;;;;;2.33;1.50;;;5.10;98.00;;;;;;5069152;28;20460;-70
2021/03/17 07:41:43;;;;;;;1.67;1.33;;;5.00;98.00;;;;;;5071929;28;20464;-70
2021/03/17 07:44:13;;;;;;;1.13;0.90;;;5.10;98.00;;;;;;5069658;28;20510;-70
2021/03/17 07:46:41;;;;;;;1.93;1.63;;;5.20;98.00;;;;;;5072197;28;20474;-70
2021/03/17 07:49:10;;;;;;;1.20;1.03;;;5.30;98.00;;;;;;5069334;28;20521;-71
2021/03/17 07:51:41;;;;;;;5.43;1.27;;;5.20;98.00;;;;;;5071914;28;20457;-71
2021/03/17 07:54:09;;;;;;;1.20;1.10;;;5.10;98.00;;;;;;5069518;28;20631;-72
2021/03/17 07:56:38;;;;;;;1.73;1.63;;;5.10;98.00;;;;;;5071977;28;20504;-72
2021/03/17 07:59:06;;;;;;;1.60;1.53;;;5.10;98.00;;;;;;5069310;28;20595;-71
2021/03/17 08:01:33;;;;;;;1.20;1.10;;;5.20;98.00;;;;;;5072126;28;20460;-71
2021/03/17 08:04:02;;;;;;;1.20;1.00;;;5.30;98.00;;;;;;5069503;28;20468;-70
2021/03/17 08:06:31;;;;;;;2.13;1.37;;;5.50;98.00;;;;;;5071889;28;20460;-72
2021/03/17 08:08:59;;;;;;;1.20;1.10;;;5.70;98.00;;;;;;5069324;28;20481;-72
2021/03/17 08:11:27;;;;;;;1.40;1.20;;;5.70;98.00;;;;;;5071251;28;20449;-71
2021/03/17 08:13:56;;;;;;;5.10;1.33;;;5.70;98.00;;;;;;5067029;28;20460;-71
2021/03/17 08:16:28;;;;;;;3.63;1.97;;;5.50;98.00;;;;;;5071507;28;20452;-71
2021/03/17 08:18:55;;;;;;;2.03;1.30;;;5.40;98.00;;;;;;5068764;28;20963;-71
2021/03/17 08:21:47;;;;;;;1.97;1.67;;;5.30;98.00;;;;;;5071231;28;20465;-69
2021/03/17 08:24:42;;;;;;;1.60;1.40;;;5.30;98.00;;;;;;5068668;28;20943;-71
2021/03/17 08:27:23;;;;;;;5.10;2.60;;;5.20;98.00;;;;;;5059564;28;20465;-71
2021/03/17 08:30:01;;;;;;;1.70;1.43;;;5.40;98.00;;;;;;5068823;28;20511;-71
2021/03/17 08:32:52;;;;;;;1.20;1.00;;;5.40;98.00;;;;;;5070864;28;20553;-68
2021/03/17 08:35:19;;;;;;;1.50;1.47;;;5.40;98.00;;;;;;5070075;28;20548;-69
2021/03/17 08:37:51;;;;;;;1.77;1.50;;;5.50;98.00;;;;;;5071041;28;20453;-69
2021/03/17 08:40:47;;;;;;;1.70;1.60;;;5.80;98.00;;;;;;5069557;28;20465;-70
2021/03/17 08:43:42;;;;;;;1.80;1.20;;;5.90;98.00;;;;;;5067902;28;20793;-70
2021/03/17 08:46:11;;;;;;;1.40;1.23;;;6.10;98.00;;;;;;5066761;28;20610;-70
2021/03/17 08:49:02;;;;;;;1.30;1.20;;;6.60;98.00;;;;;;5067105;28;20493;-70
2021/03/17 08:52:05;;;;;;;2.03;1.67;;;7.00;98.00;;;;;;5068405;28;20949;-70
2021/03/17 08:55:04;;;;;;;2.30;1.63;;;7.00;98.00;;;;;;5066826;28;20496;-70
2021/03/17 08:57:54;;;;;;;1.20;1.00;;;7.10;98.00;;;;;;5065055;28;20481;-70
2021/03/17 09:00:47;;;;;;;1.67;1.57;;;7.00;98.00;;;;;;5063694;28;20459;-70
2021/03/17 09:03:35;;;;;;;1.20;0.97;;;7.10;98.00;;;;;;5063353;28;20459;-70
2021/03/17 09:06:11;;;;;;;2.10;1.70;;;7.20;98.00;;;;;;5070206;28;20503;-69
2021/03/17 09:09:03;;;;;;;2.50;1.40;;;7.00;98.00;;;;;;5068613;28;20511;-70
2021/03/17 09:12:00;;;;;;;3.30;2.00;;;7.00;98.00;;;;;;5066964;28;20827;-71
2021/03/17 09:14:38;;;;;;;1.30;1.10;;;7.00;98.00;;;;;;5068340;28;20458;-70
2021/03/17 09:17:43;;;;;;;1.20;1.00;;;7.10;98.00;;;;;;5070137;28;20968;-71
2021/03/17 09:20:24;;;;;;;1.30;1.10;;;7.40;98.00;;;;;;5025333;28;20505;-72
2021/03/17 09:23:25;;;;;;;2.03;1.40;;;7.60;98.00;;;;;;5066575;28;20471;-71
2021/03/17 09:25:54;;;;;;;1.20;1.20;;;7.70;98.00;;;;;;5069784;28;20460;-75
2021/03/17 09:28:24;;;;;;;1.20;1.00;;;7.70;98.00;;;;;;5068048;28;20500;-71
2021/03/17 09:30:53;;;;;;;1.30;1.10;;;7.50;98.00;;;;;;5069636;28;20454;-71
2021/03/17 09:33:22;;;;;;;1.20;0.90;;;7.40;98.00;;;;;;5067619;28;20566;-70
2021/03/17 09:35:55;;;;;;;1.30;1.10;;;7.60;98.00;;;;;;5069130;28;20869;-70
2021/03/17 09:38:24;;;;;;;2.17;1.30;;;7.50;92.60;;;;;;5068043;28;20540;-70
2021/03/17 09:40:55;;;;;;;1.53;1.10;;;7.40;94.10;;;;;;5069776;28;20538;-70
2021/03/17 09:43:41;;;;;;;1.20;0.90;;;7.40;95.70;;;;;;5067737;28;20982;-70
2021/03/17 09:46:23;;;;;;;1.20;1.00;;;7.40;95.60;;;;;;5069819;28;20471;-69
2021/03/17 09:48:52;;;;;;;1.40;1.13;;;7.30;97.20;;;;;;5068038;28;20844;-70
2021/03/17 09:51:20;;;;;;;2.13;1.53;;;7.30;98.00;;;;;;5069528;28;20465;-70
2021/03/17 09:53:48;;;;;;;1.20;0.90;;;7.40;98.00;;;;;;5067659;28;21028;-71
2021/03/17 09:56:16;;;;;;;1.20;1.10;;;7.40;95.90;;;;;;5069629;28;20495;-71
2021/03/17 09:58:42;;;;;;;1.60;1.10;;;7.30;98.00;;;;;;5067536;28;20448;-72
2021/03/17 10:01:11;;;;;;;1.40;1.30;;;7.40;98.00;;;;;;5069457;28;20499;-71
2021/03/17 10:03:37;;;;;;;1.20;1.00;;;7.40;97.60;;;;;;5069204;28;20471;-71
2021/03/17 10:06:04;;;;;;;1.20;0.90;;;7.60;98.00;;;;;;5073314;28;20750;-69
2021/03/17 10:08:33;;;;;;;1.20;1.00;;;7.60;95.90;;;;;;5071167;28;20522;-69
2021/03/17 10:11:01;;;;;;;3.47;1.93;;;7.60;97.40;;;;;;5073064;28;20827;-69
2021/03/17 10:13:33;;;;;;;1.20;0.90;;;7.60;96.60;;;;;;5071001;28;20983;-70
2021/03/17 10:16:03;;;;;;;1.20;0.90;;;7.60;96.60;;;;;;5072918;28;20465;-71
2021/03/17 10:18:29;;;;;;;1.40;1.40;;;7.60;96.80;;;;;;5071212;28;20452;-71
2021/03/17 10:20:58;;;;;;;2.23;1.83;;;7.50;95.70;;;;;;5072867;28;20463;-71
2021/03/17 10:23:24;;;;;;;1.57;1.30;;;7.50;95.90;;;;;;5070598;28;20880;-71
2021/03/17 10:25:53;;;;;;;1.60;1.00;;;7.40;98.00;;;;;;5073053;28;20959;-71
2021/03/17 10:28:21;;;;;;;1.20;1.00;;;7.40;97.00;;;;;;5070837;28;20488;-71
2021/03/17 10:30:53;;;;;;;1.20;0.97;;;7.30;95.90;;;;;;5071554;28;20892;-71
2021/03/17 10:33:21;;;;;;;3.30;1.57;;;7.30;96.10;;;;;;5071473;28;20656;-71
2021/03/17 10:35:49;;;;;;;1.30;1.10;;;7.20;95.50;;;;;;5073740;28;20454;-71
2021/03/17 10:38:16;;;;;;;1.20;0.90;;;7.00;97.40;;;;;;5070667;28;21021;-71
2021/03/17 10:40:42;;;;;;;1.20;1.00;;;7.10;97.20;;;;;;5072592;28;20514;-70
2021/03/17 10:43:11;;;;;;;1.20;1.00;;;7.10;96.50;;;;;;5070457;28;20465;-71
2021/03/17 10:45:46;;;;;;;1.30;1.00;;;7.20;97.40;;;;;;5072437;28;20859;-72
2021/03/17 10:48:15;;;;;;;1.80;1.33;;;7.20;96.40;;;;;;5070470;28;20857;-71
2021/03/17 10:50:42;;;;;;;1.20;0.90;;;7.20;97.10;;;;;;5072170;28;21010;-71
2021/03/17 10:53:21;;;;;;;1.40;1.10;;;7.30;97.60;;;;;;5070886;28;20463;-72
2021/03/17 10:55:49;;;;;;;1.20;0.90;;;7.60;96.80;;;;;;5072218;28;20530;-71
2021/03/17 10:58:16;;;;;;;1.40;1.00;;;7.90;97.10;;;;;;5070695;28;20456;-72
2021/03/17 11:00:45;;;;;;;1.30;1.10;;;8.50;95.80;;;;;;5072360;28;20493;-72
2021/03/17 11:03:26;;;;;;;1.40;1.10;;;8.90;95.30;;;;;;5070313;28;20602;-72
2021/03/17 11:06:09;;;;;;;1.20;1.10;;;9.50;93.30;;;;;;5072130;28;20884;-71
2021/03/17 11:08:36;;;;;;;1.20;1.00;;;9.80;92.60;;;;;;5070287;28;20490;-72
2021/03/17 11:11:04;;;;;;;1.20;1.07;;;9.80;91.10;;;;;;5071706;28;20462;-71
2021/03/17 11:13:33;;;;;;;1.20;1.00;;;9.50;90.00;;;;;;5069385;28;20479;-72
2021/03/17 11:16:03;;;;;;;1.30;1.20;;;9.40;88.60;;;;;;5070594;28;20461;-71
2021/03/17 11:18:32;;;;;;;1.60;1.13;;;9.20;89.00;;;;;;5069817;28;21169;-72
2021/03/17 11:21:01;;;;;;;1.30;1.00;;;8.90;90.50;;;;;;5071871;28;20537;-72
2021/03/17 11:23:31;;;;;;;1.20;1.10;;;8.70;89.90;;;;;;5069811;28;20488;-72
2021/03/17 11:25:58;;;;;;;1.20;1.00;;;8.50;90.80;;;;;;5071440;28;20532;-71
2021/03/17 11:28:29;;;;;;;1.20;1.10;;;8.40;91.30;;;;;;5069553;28;20560;-71
2021/03/17 11:30:57;;;;;;;1.30;1.20;;;8.30;91.10;;;;;;5071414;28;20464;-71
2021/03/17 11:33:24;;;;;;;1.40;1.10;;;8.10;92.30;;;;;;5069429;28;20489;-71
2021/03/17 11:35:55;;;;;;;1.20;1.10;;;8.00;93.10;;;;;;5073533;28;20488;-71
2021/03/17 11:38:22;;;;;;;1.40;1.20;;;7.80;93.60;;;;;;5070507;28;20599;-71
2021/03/17 11:40:49;;;;;;;1.20;0.90;;;7.80;93.70;;;;;;5071425;28;20457;-72
2021/03/17 11:43:18;;;;;;;1.20;1.00;;;7.80;91.70;;;;;;5069171;28;20451;-72
2021/03/17 11:45:45;;;;;;;1.20;0.90;;;7.60;91.30;;;;;;5071111;28;20491;-71
2021/03/17 11:48:12;;;;;;;1.20;1.00;;;7.60;92.60;;;;;;5070712;28;20494;-71
2021/03/17 11:50:41;;;;;;;1.77;1.03;;;7.60;94.50;;;;;;5069964;28;20508;-71
2021/03/17 11:53:09;;;;;;;1.20;1.10;;;7.70;94.30;;;;;;5070872;28;20460;-72
2021/03/17 11:55:36;;;;;;;1.20;0.90;;;7.70;94.50;;;;;;5069434;28;20457;-71
2021/03/17 11:58:03;;;;;;;1.20;0.93;;;7.80;93.50;;;;;;5071043;28;20785;-72
2021/03/17 12:00:30;;;;;;;1.20;1.00;;;7.60;93.90;;;;;;5069277;28;20468;-71
2021/03/17 12:02:57;;;;;;;1.20;1.00;;;7.60;93.50;;;;;;5070691;28;20459;-71
2021/03/17 12:05:23;;;;;;;2.17;1.40;;;7.60;94.00;;;;;;5069181;28;20495;-71
2021/03/17 12:07:52;;;;;;;3.50;1.40;;;7.60;94.70;;;;;;5069648;28;20489;-71
2021/03/17 12:10:19;;;;;;;2.13;1.77;;;7.60;93.70;;;;;;5068798;28;20502;-70
2021/03/17 12:12:46;;;;;;;1.20;1.00;;;7.60;94.80;;;;;;5070594;28;21062;-71
2021/03/17 12:15:15;;;;;;;2.07;1.47;;;7.50;94.80;;;;;;5067664;28;20479;-71
2021/03/17 12:17:42;;;;;;;1.20;0.90;;;7.40;94.80;;;;;;5070828;28;20508;-71
2021/03/17 12:20:11;;;;;;;1.20;1.10;;;7.40;95.00;;;;;;5069117;28;20522;-71
2021/03/17 12:22:37;;;;;;;1.20;0.90;;;7.40;93.50;;;;;;5070119;28;20456;-71
2021/03/17 12:25:05;;;;;;;1.20;1.07;;;7.40;95.20;;;;;;5068517;28;20793;-71
2021/03/17 12:27:33;;;;;;;1.20;0.90;;;7.40;94.40;;;;;;5070108;28;20501;-70
2021/03/17 12:30:01;;;;;;;1.20;1.10;;;7.50;95.20;;;;;;5068993;28;20486;-72
2021/03/17 12:32:28;;;;;;;1.20;1.00;;;7.50;95.20;;;;;;5070614;28;20449;-71
2021/03/17 12:34:54;;;;;;;1.20;0.90;;;7.40;94.30;;;;;;5069042;28;20448;-71
2021/03/17 12:37:21;;;;;;;1.20;1.00;;;7.30;94.40;;;;;;5070730;28;20483;-71
2021/03/17 12:39:48;;;;;;;1.60;1.10;;;7.40;94.60;;;;;;5068847;28;20470;-71
2021/03/17 12:42:16;;;;;;;1.20;1.00;;;7.40;94.80;;;;;;5070269;28;20488;-71
2021/03/17 12:44:43;;;;;;;1.30;1.10;;;7.30;94.90;;;;;;5068321;28;20453;-70
2021/03/17 12:47:10;;;;;;;1.20;0.90;;;7.20;96.80;;;;;;5068923;28;20503;-70
2021/03/17 12:49:37;;;;;;;1.30;1.00;;;7.00;97.30;;;;;;5068518;28;20499;-71
2021/03/17 12:52:05;;;;;;;1.20;1.00;;;6.70;97.20;;;;;;5069579;28;20458;-70
2021/03/17 12:54:31;;;;;;;1.20;1.00;;;6.70;98.00;;;;;;5068193;28;20540;-71
2021/03/17 12:56:58;;;;;;;1.20;1.03;;;6.80;98.00;;;;;;5070224;28;20465;-70
2021/03/17 12:59:24;;;;;;;1.20;1.07;;;6.80;98.00;;;;;;5068301;28;20920;-71
2021/03/17 13:01:52;;;;;;;1.20;0.97;;;6.70;98.00;;;;;;5070103;28;20455;-71
2021/03/17 13:04:18;;;;;;;1.60;1.20;;;6.40;98.00;;;;;;5068564;28;20488;-73
2021/03/17 13:06:45;;;;;;;1.97;1.47;;;6.40;98.00;;;;;;5070681;28;20483;-71
2021/03/17 13:09:12;;;;;;;1.20;1.00;;;6.40;98.00;;;;;;5068485;28;20491;-71
2021/03/17 13:11:39;;;;;;;1.87;1.43;;;6.20;98.00;;;;;;5070211;28;20457;-70
2021/03/17 13:14:07;;;;;;;1.20;1.00;;;6.10;98.00;;;;;;5067941;28;20941;-70
2021/03/17 13:16:34;;;;;;;1.57;1.10;;;6.00;98.00;;;;;;5071274;28;20488;-71